Time;durP1;ratioP1;P1;durP2;ratioP2;P2;SDS_P1;SDS_P2;PMS_P1;PMS_P2;Temp;Humidity;BMP_temperature;BMP_pressure;BME280_temperature;BME280_humidity;BME280_pressure;Samples;Min_cycle;Max_cycle;Signal;HPM_P1;HPM_P2
2021/08/28 00:01:01;;;;;;;23.92;9.65;;;15.20;96.70;;;;;;5094563;28;20390;-75
2021/08/28 00:03:26;;;;;;;28.13;11.33;;;15.20;95.60;;;;;;5094472;28;20793;-74
2021/08/28 00:05:52;;;;;;;26.87;11.60;;;15.20;93.80;;;;;;5093426;28;20492;-73
2021/08/28 00:08:17;;;;;;;22.35;11.43;;;15.20;94.10;;;;;;5093499;28;20382;-75
2021/08/28 00:10:43;;;;;;;26.95;13.10;;;15.20;95.50;;;;;;5093657;28;20378;-75
2021/08/28 00:13:10;;;;;;;34.75;13.63;;;15.30;95.20;;;;;;5093330;28;20382;-75
2021/08/28 00:15:36;;;;;;;31.38;13.88;;;15.20;94.30;;;;;;5092707;28;20883;-75
2021/08/28 00:18:02;;;;;;;27.63;13.88;;;15.30;93.80;;;;;;5092839;28;20471;-74
2021/08/28 00:20:28;;;;;;;30.05;13.02;;;15.30;94.30;;;;;;5092884;28;20883;-74
2021/08/28 00:22:54;;;;;;;31.88;14.57;;;15.30;92.90;;;;;;5092578;28;20867;-74
2021/08/28 00:25:19;;;;;;;30.95;15.23;;;15.30;94.00;;;;;;5092770;28;20555;-74
2021/08/28 00:27:45;;;;;;;34.20;15.80;;;15.30;93.80;;;;;;5083976;28;20419;-76
2021/08/28 00:30:12;;;;;;;32.23;15.23;;;15.30;94.50;;;;;;5088208;28;20836;-75
2021/08/28 00:32:38;;;;;;;35.90;16.43;;;15.30;94.10;;;;;;5092887;28;20394;-75
2021/08/28 00:35:05;;;;;;;36.00;16.57;;;15.30;94.20;;;;;;5096539;28;20447;-75
2021/08/28 00:37:31;;;;;;;37.65;16.88;;;15.30;94.30;;;;;;5077740;28;20391;-75
2021/08/28 00:39:57;;;;;;;33.28;17.33;;;15.30;95.00;;;;;;5086085;28;20839;-74
2021/08/28 00:42:23;;;;;;;38.28;16.95;;;15.40;95.60;;;;;;5098575;28;20409;-75
2021/08/28 00:44:49;;;;;;;35.90;16.53;;;15.40;95.20;;;;;;5098442;28;20406;-76
2021/08/28 00:47:19;;;;;;;46.67;17.90;;;15.50;95.90;;;;;;5098915;28;20394;-78
2021/08/28 00:49:47;;;;;;;33.87;17.93;;;15.50;93.50;;;;;;5099853;28;20374;-77
2021/08/28 00:52:12;;;;;;;39.85;17.10;;;15.50;91.80;;;;;;5099654;28;20469;-78
2021/08/28 00:54:39;;;;;;;34.95;16.00;;;15.50;91.90;;;;;;5097688;28;20451;-76
2021/08/28 00:57:07;;;;;;;42.30;16.30;;;15.50;91.70;;;;;;5096044;28;20426;-76
2021/08/28 00:59:33;;;;;;;32.13;16.13;;;15.50;94.10;;;;;;5099111;28;20386;-77
2021/08/28 01:01:58;;;;;;;29.17;15.60;;;15.50;93.80;;;;;;5081370;28;20380;-76
2021/08/28 01:04:26;;;;;;;30.05;16.58;;;15.50;91.00;;;;;;5100252;28;20473;-75
2021/08/28 01:06:57;;;;;;;38.35;18.73;;;15.50;90.20;;;;;;5099737;28;20409;-75
2021/08/28 01:09:31;;;;;;;36.97;18.40;;;15.40;91.90;;;;;;5075679;28;20844;-76
2021/08/28 01:12:25;;;;;;;40.92;19.10;;;15.40;93.90;;;;;;5091779;28;20390;-76
2021/08/28 01:15:04;;;;;;;42.58;19.75;;;15.40;94.40;;;;;;5075675;28;20398;-75
2021/08/28 01:17:33;;;;;;;44.67;21.38;;;15.40;91.80;;;;;;5091820;28;20386;-75
2021/08/28 01:20:25;;;;;;;48.05;22.90;;;15.40;92.80;;;;;;5091894;28;20708;-75
2021/08/28 01:22:51;;;;;;;52.33;24.73;;;15.30;93.00;;;;;;5091577;28;20381;-75
2021/08/28 01:25:19;;;;;;;46.07;23.13;;;15.40;92.90;;;;;;5091268;28;20402;-75
2021/08/28 01:27:59;;;;;;;48.83;23.05;;;15.40;92.40;;;;;;5086464;28;20442;-75
2021/08/28 01:30:25;;;;;;;47.60;23.40;;;15.30;93.60;;;;;;5073542;28;20411;-75
2021/08/28 01:32:51;;;;;;;46.87;23.17;;;15.30;92.60;;;;;;5073267;28;20391;-76
2021/08/28 01:35:20;;;;;;;46.00;23.20;;;15.30;93.00;;;;;;5089540;28;20386;-76
2021/08/28 01:37:46;;;;;;;46.47;23.58;;;15.30;91.90;;;;;;5070965;28;20388;-76
2021/08/28 01:40:14;;;;;;;48.33;23.00;;;15.30;93.90;;;;;;5083649;28;20398;-76
2021/08/28 01:42:41;;;;;;;43.60;22.67;;;15.30;94.00;;;;;;5091552;28;20382;-75
2021/08/28 01:45:11;;;;;;;46.47;22.40;;;15.30;93.30;;;;;;5091385;28;20765;-75
2021/08/28 01:47:38;;;;;;;47.05;22.50;;;15.30;94.10;;;;;;5072983;28;20393;-75
2021/08/28 01:50:05;;;;;;;45.03;22.60;;;15.30;94.60;;;;;;5091347;28;20386;-75
2021/08/28 01:52:30;;;;;;;41.15;21.98;;;15.30;95.40;;;;;;5091354;28;20473;-77
2021/08/28 01:54:57;;;;;;;43.22;22.45;;;15.30;94.60;;;;;;5096439;28;20418;-75
2021/08/28 01:57:23;;;;;;;52.22;24.35;;;15.30;94.20;;;;;;5096193;28;20382;-75
2021/08/28 01:59:48;;;;;;;54.30;27.52;;;15.30;94.80;;;;;;5091317;28;20446;-74
2021/08/28 02:02:14;;;;;;;48.55;26.02;;;15.30;93.70;;;;;;5072832;28;20418;-75
2021/08/28 02:04:40;;;;;;;58.60;24.95;;;15.30;95.10;;;;;;5090487;28;20500;-74
2021/08/28 02:07:12;;;;;;;55.63;26.73;;;15.20;93.50;;;;;;5090505;28;20828;-74
2021/08/28 02:09:37;;;;;;;52.33;27.45;;;15.20;95.80;;;;;;5091125;28;20468;-74
2021/08/28 02:12:15;;;;;;;57.13;28.80;;;15.20;96.50;;;;;;5090565;28;20791;-74
2021/08/28 02:15:04;;;;;;;53.60;28.38;;;15.20;95.30;;;;;;5091319;28;20742;-73
2021/08/28 02:17:31;;;;;;;56.08;29.58;;;15.20;96.00;;;;;;5072459;28;20459;-73
2021/08/28 02:20:01;;;;;;;55.83;29.10;;;15.20;96.40;;;;;;5090596;28;20382;-74
2021/08/28 02:22:30;;;;;;;68.30;33.28;;;15.30;96.80;;;;;;5090642;28;20766;-74
2021/08/28 02:25:02;;;;;;;58.80;32.03;;;15.30;95.40;;;;;;5090675;28;20402;-74
2021/08/28 02:27:31;;;;;;;79.40;36.20;;;15.30;96.10;;;;;;5084157;28;20390;-74
2021/08/28 02:30:09;;;;;;;79.83;37.90;;;15.30;96.70;;;;;;5070439;28;20470;-75
2021/08/28 02:32:35;;;;;;;63.45;35.78;;;15.30;95.90;;;;;;5071028;28;20392;-74
2021/08/28 02:35:03;;;;;;;73.45;38.03;;;15.40;95.10;;;;;;5089893;28;20905;-75
2021/08/28 02:37:33;;;;;;;66.03;36.78;;;15.40;94.60;;;;;;5090334;28;20390;-74
2021/08/28 02:40:01;;;;;;;81.47;40.40;;;15.30;95.90;;;;;;5090454;28;20382;-74
2021/08/28 02:42:27;;;;;;;80.88;41.33;;;15.30;96.10;;;;;;5090466;28;20436;-74
2021/08/28 02:44:54;;;;;;;90.93;43.08;;;15.40;95.30;;;;;;5090238;28;20413;-75
2021/08/28 02:47:22;;;;;;;88.57;44.25;;;15.40;95.40;;;;;;5090463;28;20393;-74
2021/08/28 02:49:49;;;;;;;94.25;44.25;;;15.30;95.40;;;;;;5090222;28;20792;-75
2021/08/28 02:52:16;;;;;;;93.63;47.55;;;15.30;96.10;;;;;;5090725;28;20704;-75
2021/08/28 02:54:42;;;;;;;99.95;48.60;;;15.30;97.20;;;;;;5090366;28;20388;-75
2021/08/28 02:57:09;;;;;;;98.70;48.67;;;15.30;97.60;;;;;;5090470;28;20386;-75
2021/08/28 02:59:36;;;;;;;99.20;48.55;;;15.40;97.40;;;;;;5090459;28;20797;-75
2021/08/28 03:02:03;;;;;;;98.50;47.33;;;15.40;96.20;;;;;;5090146;28;20390;-75
2021/08/28 03:04:29;;;;;;;94.85;47.08;;;15.40;96.80;;;;;;5089426;28;20964;-75
2021/08/28 03:06:55;;;;;;;100.13;45.95;;;15.40;96.40;;;;;;5089897;28;20430;-75
2021/08/28 03:09:21;;;;;;;102.03;46.58;;;15.40;96.60;;;;;;5072029;28;20454;-75
2021/08/28 03:11:48;;;;;;;94.82;47.97;;;15.40;96.40;;;;;;5090260;28;20401;-76
2021/08/28 03:14:14;;;;;;;95.20;42.20;;;15.40;96.90;;;;;;5089737;28;20397;-76
2021/08/28 03:16:43;;;;;;;101.18;45.15;;;15.40;95.90;;;;;;5092102;28;20389;-76
2021/08/28 03:19:10;;;;;;;106.17;47.77;;;15.30;97.60;;;;;;5093852;28;20382;-75
2021/08/28 03:21:38;;;;;;;106.15;47.67;;;15.30;99.10;;;;;;5094112;28;20370;-76
2021/08/28 03:24:06;;;;;;;111.13;51.80;;;15.30;98.90;;;;;;5093674;28;20374;-75
2021/08/28 03:26:33;;;;;;;124.32;55.60;;;15.30;99.30;;;;;;5093872;28;20758;-75
2021/08/28 03:29:00;;;;;;;123.95;56.75;;;15.30;98.90;;;;;;5092881;28;20390;-76
2021/08/28 03:31:26;;;;;;;130.05;59.13;;;15.40;98.80;;;;;;5093599;28;20502;-75
2021/08/28 03:33:58;;;;;;;136.02;61.92;;;15.40;98.30;;;;;;5093524;28;20791;-75
2021/08/28 03:36:24;;;;;;;139.23;59.20;;;15.30;98.30;;;;;;5082095;28;20384;-75
2021/08/28 03:38:51;;;;;;;142.60;61.60;;;15.40;97.50;;;;;;5073068;28;20380;-75
2021/08/28 03:41:17;;;;;;;123.82;58.42;;;15.40;97.70;;;;;;5091203;28;20422;-75
2021/08/28 03:43:44;;;;;;;127.50;56.47;;;15.40;97.90;;;;;;5094479;28;20433;-76
2021/08/28 03:46:10;;;;;;;128.38;54.85;;;15.40;97.80;;;;;;5097010;28;20466;-75
2021/08/28 03:48:37;;;;;;;120.78;56.45;;;15.40;96.60;;;;;;5094186;28;20467;-76
2021/08/28 03:51:03;;;;;;;125.60;56.28;;;15.40;98.20;;;;;;5097926;28;20774;-76
2021/08/28 03:53:28;;;;;;;116.57;54.70;;;15.40;97.60;;;;;;5097415;28;20382;-77
2021/08/28 03:55:57;;;;;;;119.23;55.47;;;15.40;97.60;;;;;;5103401;28;20401;-77
2021/08/28 03:58:23;;;;;;;115.28;53.80;;;15.40;96.70;;;;;;5078611;28;20751;-76
2021/08/28 04:00:50;;;;;;;127.93;59.15;;;15.50;97.90;;;;;;5097936;28;20847;-75
2021/08/28 04:03:15;;;;;;;119.82;56.08;;;15.50;95.70;;;;;;5097883;28;20378;-75
2021/08/28 04:05:41;;;;;;;121.43;54.80;;;15.50;96.60;;;;;;5094174;28;20917;-75
2021/08/28 04:08:06;;;;;;;118.03;53.90;;;15.40;95.90;;;;;;5092878;28;20427;-75
2021/08/28 04:10:32;;;;;;;114.35;53.20;;;15.40;96.50;;;;;;5092889;28;20397;-75
2021/08/28 04:12:58;;;;;;;117.97;54.43;;;15.40;96.60;;;;;;5077273;28;20393;-75
2021/08/28 04:15:23;;;;;;;119.15;52.75;;;15.40;96.90;;;;;;5093741;28;20397;-75
2021/08/28 04:17:49;;;;;;;119.03;53.67;;;15.40;97.00;;;;;;5078314;28;20469;-76
2021/08/28 04:20:14;;;;;;;105.00;52.33;;;15.50;97.40;;;;;;5098906;28;20382;-76
2021/08/28 04:22:40;;;;;;;127.87;53.13;;;15.50;96.70;;;;;;5098693;28;20382;-76
2021/08/28 04:25:07;;;;;;;113.70;51.88;;;15.50;95.90;;;;;;5095679;28;20409;-76
2021/08/28 04:27:33;;;;;;;121.82;54.78;;;15.50;95.80;;;;;;5086550;28;20383;-75
2021/08/28 04:29:58;;;;;;;121.85;55.55;;;15.50;96.40;;;;;;5073424;28;20433;-75
2021/08/28 04:32:24;;;;;;;125.53;55.78;;;15.50;96.30;;;;;;5075595;28;20779;-76
2021/08/28 04:34:49;;;;;;;124.95;56.75;;;15.50;96.90;;;;;;5095817;28;20770;-76
2021/08/28 04:37:15;;;;;;;118.17;54.10;;;15.50;96.70;;;;;;5075064;28;20461;-75
2021/08/28 04:39:40;;;;;;;118.93;55.00;;;15.50;98.10;;;;;;5087459;28;20397;-76
2021/08/28 04:42:06;;;;;;;110.23;50.13;;;15.50;98.30;;;;;;5071245;28;20396;-74
2021/08/28 04:44:32;;;;;;;102.80;48.88;;;15.50;97.20;;;;;;5072230;28;20887;-74
2021/08/28 04:46:58;;;;;;;91.78;45.78;;;15.50;96.70;;;;;;5072424;28;20379;-75
2021/08/28 04:49:23;;;;;;;85.90;44.50;;;15.50;98.50;;;;;;5072466;28;20380;-75
2021/08/28 04:51:49;;;;;;;71.17;38.33;;;15.50;99.20;;;;;;5076268;28;20392;-75
2021/08/28 04:54:15;;;;;;;65.17;37.00;;;15.50;98.30;;;;;;5092477;28;20382;-75
2021/08/28 04:56:40;;;;;;;66.18;36.45;;;15.50;99.00;;;;;;5092417;28;20384;-74
2021/08/28 04:59:06;;;;;;;69.57;36.97;;;15.50;99.90;;;;;;5091709;28;20382;-74
2021/08/28 05:01:31;;;;;;;65.00;36.20;;;15.60;99.90;;;;;;5092039;28;20389;-74
2021/08/28 05:03:57;;;;;;;56.78;32.90;;;15.60;99.90;;;;;;5092025;28;20382;-74
2021/08/28 05:06:22;;;;;;;58.13;34.63;;;15.60;99.90;;;;;;5091973;28;20422;-75
2021/08/28 05:08:48;;;;;;;53.70;33.37;;;15.50;99.90;;;;;;5091884;28;20386;-75
2021/08/28 05:11:13;;;;;;;47.80;30.23;;;15.40;99.90;;;;;;5092655;28;20470;-75
2021/08/28 05:13:39;;;;;;;40.85;24.23;;;15.50;99.90;;;;;;5092493;28;20378;-75
2021/08/28 05:16:05;;;;;;;35.17;22.30;;;15.50;99.90;;;;;;5092334;28;20386;-75
2021/08/28 05:18:31;;;;;;;31.10;21.38;;;15.40;99.90;;;;;;5091665;28;20385;-74
2021/08/28 05:20:57;;;;;;;28.20;18.23;;;15.30;99.90;;;;;;5091176;28;20398;-74
2021/08/28 05:23:22;;;;;;;21.35;17.40;;;15.30;99.90;;;;;;5091796;28;20393;-75
2021/08/28 05:25:48;;;;;;;28.60;17.77;;;15.30;99.90;;;;;;5091344;28;20398;-74
2021/08/28 05:28:13;;;;;;;23.97;15.87;;;15.30;99.90;;;;;;5078650;28;20433;-74
2021/08/28 05:30:39;;;;;;;20.23;13.40;;;15.30;99.90;;;;;;5071284;28;20380;-74
2021/08/28 05:33:04;;;;;;;29.20;18.63;;;15.20;99.90;;;;;;5076140;28;20789;-75
2021/08/28 05:35:30;;;;;;;25.97;18.67;;;15.20;99.90;;;;;;5087258;28;20425;-75
2021/08/28 05:37:56;;;;;;;25.40;17.67;;;15.20;99.90;;;;;;5071445;28;20836;-76
2021/08/28 05:40:21;;;;;;;29.35;20.58;;;15.30;99.90;;;;;;5066096;28;20902;-76
2021/08/28 05:42:47;;;;;;;30.27;21.05;;;15.30;99.90;;;;;;5074399;28;20475;-75
2021/08/28 05:45:12;;;;;;;30.98;21.27;;;15.40;99.90;;;;;;5091106;28;20409;-75
2021/08/28 05:47:38;;;;;;;35.30;21.33;;;15.40;99.90;;;;;;5090725;28;20743;-76
2021/08/28 05:50:05;;;;;;;29.85;21.75;;;15.40;99.90;;;;;;5090966;28;20466;-75
2021/08/28 05:52:30;;;;;;;31.90;21.70;;;15.40;99.90;;;;;;5091192;28;20401;-75
2021/08/28 05:54:56;;;;;;;31.03;21.70;;;15.60;99.90;;;;;;5091013;28;20382;-76
2021/08/28 05:57:22;;;;;;;30.20;21.57;;;15.60;99.90;;;;;;5090973;28;20390;-76
2021/08/28 05:59:47;;;;;;;25.67;16.73;;;15.70;99.90;;;;;;5091089;28;20532;-75
2021/08/28 06:02:13;;;;;;;28.70;19.45;;;15.70;93.30;;;;;;5090806;28;20389;-75
2021/08/28 06:04:39;;;;;;;26.25;19.27;;;15.70;94.80;;;;;;5091128;28;21028;-75
2021/08/28 06:07:04;;;;;;;29.48;18.60;;;15.80;94.30;;;;;;5072881;28;20382;-75
2021/08/28 06:09:30;;;;;;;28.83;16.08;;;15.80;93.10;;;;;;5091035;28;20374;-75
2021/08/28 06:11:56;;;;;;;27.70;16.77;;;15.80;90.50;;;;;;5090514;28;20470;-75
2021/08/28 06:14:21;;;;;;;25.88;17.30;;;15.80;91.40;;;;;;5090499;28;20419;-75
2021/08/28 06:16:47;;;;;;;34.58;18.00;;;15.70;91.90;;;;;;5090397;28;20394;-75
2021/08/28 06:19:13;;;;;;;27.02;17.55;;;15.80;92.50;;;;;;5090291;28;20382;-74
2021/08/28 06:21:39;;;;;;;26.73;17.73;;;15.80;90.90;;;;;;5072643;28;20459;-75
2021/08/28 06:24:05;;;;;;;26.92;14.93;;;15.90;92.40;;;;;;5072489;28;20392;-75
2021/08/28 06:26:30;;;;;;;23.33;15.68;;;16.00;88.10;;;;;;5090560;28;20829;-75
2021/08/28 06:28:56;;;;;;;25.13;15.93;;;16.00;87.20;;;;;;5071722;28;20382;-75
2021/08/28 06:31:21;;;;;;;23.75;16.48;;;15.90;86.00;;;;;;5064014;28;20478;-75
2021/08/28 06:33:47;;;;;;;27.20;18.87;;;15.90;88.30;;;;;;5090279;28;20886;-75
2021/08/28 06:36:13;;;;;;;33.40;20.43;;;15.90;89.20;;;;;;5080556;28;20420;-75
2021/08/28 06:38:38;;;;;;;30.20;20.93;;;15.90;91.00;;;;;;5070244;28;20380;-75
2021/08/28 06:41:04;;;;;;;32.83;22.33;;;16.00;89.60;;;;;;5086301;28;20736;-75
2021/08/28 06:43:30;;;;;;;33.13;22.02;;;16.10;88.90;;;;;;5090120;28;20390;-76
2021/08/28 06:45:56;;;;;;;33.90;22.13;;;16.10;88.20;;;;;;5089666;28;20410;-74
2021/08/28 06:48:22;;;;;;;34.35;21.08;;;16.10;87.40;;;;;;5090968;28;20409;-76
2021/08/28 06:50:48;;;;;;;40.33;22.25;;;16.10;87.50;;;;;;5095168;28;20374;-75
2021/08/28 06:53:15;;;;;;;35.90;21.40;;;16.10;86.00;;;;;;5094684;28;20392;-75
2021/08/28 06:55:40;;;;;;;36.42;21.48;;;16.10;85.20;;;;;;5094488;28;20468;-76
2021/08/28 06:58:06;;;;;;;34.00;20.30;;;16.10;85.80;;;;;;5094264;28;20799;-76
2021/08/28 07:00:31;;;;;;;32.28;22.10;;;16.10;83.30;;;;;;5094347;28;20385;-75
2021/08/28 07:02:57;;;;;;;32.53;21.60;;;16.20;85.20;;;;;;5094744;28;20871;-74
2021/08/28 07:05:23;;;;;;;28.83;21.20;;;16.20;83.10;;;;;;5075948;28;20450;-75
2021/08/28 07:07:49;;;;;;;28.53;17.90;;;16.30;83.40;;;;;;5094031;28;20408;-75
2021/08/28 07:10:15;;;;;;;25.80;16.25;;;16.30;79.40;;;;;;5094000;28;20898;-74
2021/08/28 07:12:41;;;;;;;27.00;15.00;;;16.30;78.40;;;;;;5093989;28;20414;-73
2021/08/28 07:15:08;;;;;;;24.92;14.50;;;16.40;76.90;;;;;;5093943;28;20471;-76
2021/08/28 07:17:34;;;;;;;21.93;12.90;;;16.40;74.70;;;;;;5093327;28;20397;-76
2021/08/28 07:19:59;;;;;;;23.23;12.70;;;16.40;73.30;;;;;;5094705;28;20747;-76
2021/08/28 07:22:25;;;;;;;22.60;12.60;;;16.40;75.60;;;;;;5094534;28;20382;-76
2021/08/28 07:24:50;;;;;;;20.73;12.63;;;16.30;75.20;;;;;;5093568;28;20434;-74
2021/08/28 07:27:17;;;;;;;20.80;13.05;;;16.40;77.10;;;;;;5088718;28;20414;-76
2021/08/28 07:29:43;;;;;;;22.85;13.10;;;16.70;77.80;;;;;;5078016;28;20470;-75
2021/08/28 07:32:10;;;;;;;17.63;11.40;;;17.00;72.30;;;;;;5094707;28;20377;-76
2021/08/28 07:34:36;;;;;;;19.42;12.18;;;17.10;65.10;;;;;;5094116;28;20386;-76
2021/08/28 07:37:06;;;;;;;20.13;11.68;;;17.00;70.40;;;;;;5059060;28;20395;-75
2021/08/28 07:39:32;;;;;;;22.23;11.57;;;17.00;67.80;;;;;;5076287;28;20378;-75
2021/08/28 07:41:58;;;;;;;20.17;13.45;;;17.00;67.90;;;;;;5093517;28;20386;-78
2021/08/28 07:44:24;;;;;;;20.80;12.95;;;17.10;68.30;;;;;;5092999;28;20724;-76
2021/08/28 07:46:50;;;;;;;20.40;13.10;;;17.40;65.90;;;;;;5094817;28;20394;-77
2021/08/28 07:49:16;;;;;;;20.93;13.20;;;17.50;63.80;;;;;;5094473;28;20781;-77
2021/08/28 07:51:41;;;;;;;19.30;12.27;;;17.60;62.30;;;;;;5093996;28;20374;-76
2021/08/28 07:54:07;;;;;;;15.97;11.70;;;17.50;60.80;;;;;;5091080;28;20390;-75
2021/08/28 07:56:33;;;;;;;17.33;9.97;;;17.50;61.20;;;;;;5088962;28;20394;-76
2021/08/28 07:58:58;;;;;;;15.95;11.40;;;17.40;61.20;;;;;;5092536;28;20398;-75
2021/08/28 08:01:24;;;;;;;17.43;10.17;;;17.60;61.60;;;;;;5083199;28;21016;-75
2021/08/28 08:03:50;;;;;;;21.25;10.60;;;17.80;57.60;;;;;;5062517;28;20404;-75
2021/08/28 08:06:15;;;;;;;16.55;9.70;;;18.00;56.90;;;;;;5084926;28;20463;-75
2021/08/28 08:08:41;;;;;;;15.33;8.73;;;17.80;56.70;;;;;;5092825;28;20486;-76
2021/08/28 08:11:07;;;;;;;17.37;10.30;;;17.40;59.50;;;;;;5092572;28;20966;-75
2021/08/28 08:13:32;;;;;;;20.40;10.60;;;17.10;62.10;;;;;;5093178;28;20390;-75
2021/08/28 08:15:58;;;;;;;17.57;10.40;;;17.20;65.30;;;;;;5092567;28;20894;-75
2021/08/28 08:18:23;;;;;;;16.42;10.30;;;17.20;63.40;;;;;;5097465;28;20386;-76
2021/08/28 08:20:49;;;;;;;21.67;10.80;;;17.10;64.60;;;;;;5093154;28;20475;-75
2021/08/28 08:23:14;;;;;;;19.13;10.65;;;17.30;65.70;;;;;;5074892;28;20387;-75
2021/08/28 08:25:40;;;;;;;13.70;9.77;;;17.50;59.80;;;;;;5075979;28;20916;-75
2021/08/28 08:28:06;;;;;;;14.93;9.37;;;17.90;58.10;;;;;;5091623;28;20724;-75
2021/08/28 08:30:31;;;;;;;16.65;9.10;;;18.20;55.40;;;;;;5092998;28;20382;-75
2021/08/28 08:32:57;;;;;;;14.90;9.93;;;18.30;53.40;;;;;;5092817;28;20875;-76
2021/08/28 08:35:23;;;;;;;15.40;9.77;;;18.00;55.00;;;;;;5089796;28;20407;-76
2021/08/28 08:37:48;;;;;;;14.02;9.43;;;17.80;60.70;;;;;;5072135;28;20849;-76
2021/08/28 08:40:14;;;;;;;17.07;10.00;;;17.50;63.30;;;;;;5081595;28;20732;-76
2021/08/28 08:42:42;;;;;;;16.20;9.67;;;17.40;66.80;;;;;;5091767;28;20409;-75
2021/08/28 08:45:08;;;;;;;17.40;9.70;;;17.30;64.90;;;;;;5092426;28;20405;-75
2021/08/28 08:47:36;;;;;;;13.35;8.73;;;17.50;66.20;;;;;;5089035;28;20897;-75
2021/08/28 08:50:03;;;;;;;14.55;8.70;;;17.60;58.30;;;;;;5076403;28;20807;-76
2021/08/28 08:52:31;;;;;;;19.30;8.80;;;17.90;57.70;;;;;;5072104;28;20443;-75
2021/08/28 08:54:57;;;;;;;17.05;8.10;;;18.00;56.80;;;;;;5084364;28;20883;-76
2021/08/28 08:57:24;;;;;;;14.73;8.70;;;18.10;55.10;;;;;;5092299;28;20871;-75
2021/08/28 08:59:49;;;;;;;13.18;8.68;;;18.00;53.70;;;;;;5073925;28;20398;-75
2021/08/28 09:02:15;;;;;;;11.03;7.90;;;18.20;55.50;;;;;;5092178;28;20389;-75
2021/08/28 09:04:41;;;;;;;13.87;7.87;;;18.30;51.90;;;;;;5091809;28;20398;-76
2021/08/28 09:07:12;;;;;;;15.07;7.80;;;18.30;50.50;;;;;;5092152;28;20788;-76
2021/08/28 09:09:38;;;;;;;10.35;7.80;;;18.10;51.70;;;;;;5091106;28;20397;-75
2021/08/28 09:12:05;;;;;;;14.47;7.80;;;18.20;52.50;;;;;;5090196;28;20394;-75
2021/08/28 09:14:31;;;;;;;11.07;7.00;;;18.50;49.40;;;;;;5073326;28;20468;-75
2021/08/28 09:17:12;;;;;;;11.43;7.40;;;18.70;47.10;;;;;;5091701;28;20410;-76
2021/08/28 09:19:39;;;;;;;13.60;7.97;;;18.90;46.50;;;;;;5091484;28;20469;-76
2021/08/28 09:22:26;;;;;;;16.10;7.40;;;19.40;44.80;;;;;;5091435;28;20905;-76
2021/08/28 09:24:55;;;;;;;10.20;7.10;;;19.50;44.60;;;;;;5090632;28;20429;-76
2021/08/28 09:27:40;;;;;;;11.80;7.30;;;19.50;43.50;;;;;;5085852;28;20402;-75
2021/08/28 09:30:35;;;;;;;13.80;6.90;;;19.40;41.50;;;;;;5080650;28;20394;-76
2021/08/28 09:33:03;;;;;;;13.55;7.50;;;19.20;43.90;;;;;;5091498;28;20402;-76
2021/08/28 09:35:58;;;;;;;10.35;6.90;;;19.30;44.30;;;;;;5087404;28;20910;-75
2021/08/28 09:38:24;;;;;;;9.15;7.22;;;18.80;45.30;;;;;;5058836;28;20407;-76
2021/08/28 09:40:56;;;;;;;11.87;8.13;;;18.60;47.70;;;;;;5076561;28;20407;-75
2021/08/28 09:43:23;;;;;;;11.48;8.48;;;18.10;52.00;;;;;;5069882;28;20419;-74
2021/08/28 09:45:50;;;;;;;11.55;9.30;;;17.80;53.30;;;;;;5086025;28;20402;-76
2021/08/28 09:48:18;;;;;;;14.15;9.10;;;17.60;55.40;;;;;;5092147;28;20390;-74
2021/08/28 09:50:51;;;;;;;13.30;10.00;;;17.60;58.90;;;;;;5093170;28;20799;-75
2021/08/28 09:53:22;;;;;;;15.35;10.65;;;17.60;60.00;;;;;;5072767;28;20882;-76
2021/08/28 09:55:56;;;;;;;11.70;9.77;;;17.60;60.40;;;;;;5073781;28;20383;-75
2021/08/28 09:58:28;;;;;;;14.77;9.75;;;17.50;57.80;;;;;;5091326;28;20390;-73
2021/08/28 10:00:58;;;;;;;20.05;11.55;;;17.30;59.60;;;;;;5091940;28;20543;-75
2021/08/28 10:03:29;;;;;;;10.20;7.88;;;17.20;82.60;;;;;;5091873;28;20783;-75
2021/08/28 10:05:56;;;;;;;8.93;6.95;;;17.10;77.20;;;;;;5091301;28;20410;-76
2021/08/28 10:08:22;;;;;;;9.70;6.20;;;17.00;77.60;;;;;;5090062;28;20819;-75
2021/08/28 10:10:49;;;;;;;8.20;5.70;;;17.00;82.30;;;;;;5086800;28;20395;-74
2021/08/28 10:13:17;;;;;;;12.20;8.35;;;16.80;86.40;;;;;;5078752;28;20386;-77
2021/08/28 10:15:44;;;;;;;12.90;8.52;;;16.60;99.90;;;;;;5090779;28;20436;-75
2021/08/28 10:18:12;;;;;;;7.80;7.00;;;16.50;99.90;;;;;;5090152;28;20409;-74
2021/08/28 10:20:39;;;;;;;8.27;5.70;;;16.50;99.90;;;;;;5091225;28;20442;-74
2021/08/28 10:23:05;;;;;;;7.45;5.97;;;16.30;98.30;;;;;;5090879;28;20409;-75
2021/08/28 10:25:35;;;;;;;7.32;6.30;;;16.30;99.90;;;;;;5090619;28;20434;-75
2021/08/28 10:28:01;;;;;;;11.63;6.93;;;16.40;99.90;;;;;;5080421;28;20403;-76
2021/08/28 10:30:27;;;;;;;7.65;6.00;;;16.60;99.90;;;;;;5053923;28;20945;-76
2021/08/28 10:32:54;;;;;;;5.90;5.30;;;16.60;97.20;;;;;;5088049;28;20401;-75
2021/08/28 10:35:21;;;;;;;6.47;5.87;;;16.70;93.40;;;;;;5089218;28;20402;-75
2021/08/28 10:37:47;;;;;;;7.57;5.60;;;16.80;93.50;;;;;;5088402;28;20515;-75
2021/08/28 10:40:21;;;;;;;6.23;5.63;;;16.70;92.50;;;;;;5086811;28;20443;-75
2021/08/28 10:42:50;;;;;;;10.43;5.80;;;16.80;93.00;;;;;;5092449;28;20410;-75
2021/08/28 10:45:16;;;;;;;8.38;6.38;;;16.80;95.50;;;;;;5091449;28;20406;-75
2021/08/28 10:47:45;;;;;;;5.83;5.23;;;17.20;96.30;;;;;;5073215;28;20381;-74
2021/08/28 10:50:12;;;;;;;6.47;4.97;;;17.60;80.80;;;;;;5089816;28;20473;-74
2021/08/28 10:52:43;;;;;;;9.00;6.75;;;18.10;71.70;;;;;;5090854;28;20386;-75
2021/08/28 10:55:11;;;;;;;4.70;4.30;;;18.40;68.40;;;;;;5090296;28;20448;-74
2021/08/28 10:57:38;;;;;;;52.00;33.40;;;18.50;63.20;;;;;;5093400;28;20386;-77
2021/08/28 11:00:03;;;;;;;36.40;24.07;;;18.80;66.10;;;;;;5073820;28;20494;-76
2021/08/28 11:02:49;;;;;;;7.10;5.53;;;18.90;60.40;;;;;;5090377;28;20482;-74
2021/08/28 11:05:16;;;;;;;8.70;5.30;;;18.90;56.40;;;;;;5090583;28;20436;-76
2021/08/28 11:07:43;;;;;;;8.40;7.15;;;18.70;55.70;;;;;;5062147;28;20711;-77
2021/08/28 11:10:11;;;;;;;7.72;6.40;;;18.80;58.30;;;;;;5087156;28;20401;-75
2021/08/28 11:13:03;;;;;;;7.32;6.72;;;19.00;55.50;;;;;;5091370;28;20386;-76
2021/08/28 11:15:31;;;;;;;10.55;7.43;;;19.00;55.90;;;;;;5097907;28;20394;-77
2021/08/28 11:17:58;;;;;;;11.23;9.70;;;19.00;51.60;;;;;;5090782;28;20378;-77
2021/08/28 11:20:26;;;;;;;45.50;32.93;;;19.20;53.20;;;;;;5092443;28;20942;-76
2021/08/28 11:22:52;;;;;;;79.63;56.17;;;19.50;54.30;;;;;;5091501;28;20405;-76
2021/08/28 11:25:20;;;;;;;10.73;8.80;;;19.60;51.80;;;;;;5090600;28;20480;-76
2021/08/28 11:27:47;;;;;;;11.20;9.65;;;19.40;49.70;;;;;;5095434;28;20481;-80
2021/08/28 11:30:15;;;;;;;10.60;9.60;;;19.30;51.30;;;;;;5093846;28;20378;-75
2021/08/28 11:32:58;;;;;;;10.65;9.30;;;19.10;51.90;;;;;;5090658;28;20386;-76
2021/08/28 11:35:32;;;;;;;10.77;8.60;;;19.20;51.40;;;;;;5089919;28;20748;-79
2021/08/28 11:38:06;;;;;;;11.63;9.98;;;19.20;50.10;;;;;;5092062;28;20435;-76
2021/08/28 11:40:33;;;;;;;9.85;8.85;;;19.30;51.20;;;;;;5091159;28;20394;-76
2021/08/28 11:43:00;;;;;;;11.13;9.50;;;19.00;48.50;;;;;;5093792;28;20412;-76
2021/08/28 11:45:40;;;;;;;11.85;8.95;;;19.00;49.50;;;;;;5093692;28;20894;-75
2021/08/28 11:48:14;;;;;;;10.02;8.50;;;18.70;51.70;;;;;;5093753;28;20497;-76
2021/08/28 11:50:42;;;;;;;10.85;8.60;;;18.50;53.50;;;;;;5093032;28;20392;-76
2021/08/28 11:53:08;;;;;;;10.38;8.40;;;18.70;53.40;;;;;;5093776;28;20394;-75
2021/08/28 11:55:35;;;;;;;9.20;8.23;;;18.80;50.80;;;;;;5094238;28;20746;-77
2021/08/28 11:58:05;;;;;;;8.40;7.60;;;19.10;50.10;;;;;;5093733;28;20390;-76
2021/08/28 12:00:32;;;;;;;8.73;7.82;;;19.50;47.10;;;;;;5094678;28;20398;-76
2021/08/28 12:02:59;;;;;;;8.85;7.95;;;19.90;46.20;;;;;;5084780;28;20382;-76
2021/08/28 12:05:25;;;;;;;8.60;7.70;;;19.90;45.20;;;;;;5091512;28;20514;-77
2021/08/28 12:07:54;;;;;;;10.95;7.80;;;19.80;45.60;;;;;;5094848;28;20520;-75
2021/08/28 12:10:21;;;;;;;9.55;8.55;;;19.80;44.50;;;;;;5100727;28;20374;-76
2021/08/28 12:12:58;;;;;;;8.30;7.40;;;19.80;46.10;;;;;;5097661;28;20501;-75
2021/08/28 12:15:24;;;;;;;8.88;7.43;;;20.10;44.90;;;;;;5085749;28;20537;-75
2021/08/28 12:17:51;;;;;;;7.82;5.93;;;19.90;44.60;;;;;;5092578;28;20732;-76
2021/08/28 12:20:24;;;;;;;8.00;6.55;;;19.60;46.70;;;;;;5093266;28;20481;-76
2021/08/28 12:22:52;;;;;;;6.60;5.57;;;19.40;48.40;;;;;;5092971;28;20543;-76
2021/08/28 12:25:18;;;;;;;6.53;4.07;;;19.70;50.30;;;;;;5092831;28;20434;-75
2021/08/28 12:27:49;;;;;;;6.28;3.80;;;19.60;42.50;;;;;;5084284;28;20476;-76
2021/08/28 12:30:15;;;;;;;4.82;4.20;;;19.40;45.90;;;;;;5082483;28;20540;-79
2021/08/28 12:32:40;;;;;;;6.33;5.10;;;19.50;47.60;;;;;;5093312;28;20666;-75